sensor_id;sensor_type;location;lat;lon;timestamp;P1;durP1;ratioP1;P2;durP2;ratioP2
4055;SDS011;2043;52.184;8.690;2023-05-01T00:02:10;10.00;;;4.90;;
4055;SDS011;2043;52.184;8.690;2023-05-01T00:04:37;9.83;;;4.93;;
4055;SDS011;2043;52.184;8.690;2023-05-01T00:07:04;13.00;;;5.00;;
4055;SDS011;2043;52.184;8.690;2023-05-01T00:09:31;9.97;;;4.40;;
4055;SDS011;2043;52.184;8.690;2023-05-01T00:11:58;16.33;;;5.70;;
4055;SDS011;2043;52.184;8.690;2023-05-01T00:14:25;11.07;;;5.00;;
4055;SDS011;2043;52.184;8.690;2023-05-01T00:16:52;12.70;;;5.60;;
4055;SDS011;2043;52.184;8.690;2023-05-01T00:19:19;10.13;;;5.37;;
4055;SDS011;2043;52.184;8.690;2023-05-01T00:21:46;11.93;;;5.37;;
4055;SDS011;2043;52.184;8.690;2023-05-01T00:24:13;9.53;;;4.93;;
4055;SDS011;2043;52.184;8.690;2023-05-01T00:26:42;11.63;;;5.43;;
4055;SDS011;2043;52.184;8.690;2023-05-01T00:29:10;10.60;;;4.97;;
4055;SDS011;2043;52.184;8.690;2023-05-01T00:31:37;20.13;;;5.70;;
4055;SDS011;2043;52.184;8.690;2023-05-01T00:34:04;11.80;;;5.23;;
4055;SDS011;2043;52.184;8.690;2023-05-01T00:36:31;10.23;;;5.43;;
4055;SDS011;2043;52.184;8.690;2023-05-01T00:38:58;14.63;;;7.00;;
4055;SDS011;2043;52.184;8.690;2023-05-01T00:41:25;11.93;;;6.53;;
4055;SDS011;2043;52.184;8.690;2023-05-01T00:43:52;10.40;;;5.20;;
4055;SDS011;2043;52.184;8.690;2023-05-01T00:46:19;15.13;;;5.77;;
4055;SDS011;2043;52.184;8.690;2023-05-01T00:48:46;10.47;;;4.80;;
4055;SDS011;2043;52.184;8.690;2023-05-01T00:51:13;10.13;;;5.20;;
4055;SDS011;2043;52.184;8.690;2023-05-01T00:53:40;8.30;;;4.80;;
4055;SDS011;2043;52.184;8.690;2023-05-01T00:56:08;12.60;;;5.30;;
4055;SDS011;2043;52.184;8.690;2023-05-01T00:58:37;14.77;;;6.60;;
4055;SDS011;2043;52.184;8.690;2023-05-01T01:01:04;19.93;;;6.50;;
4055;SDS011;2043;52.184;8.690;2023-05-01T01:03:31;12.73;;;5.60;;
4055;SDS011;2043;52.184;8.690;2023-05-01T01:14:32;14.80;;;6.17;;
4055;SDS011;2043;52.184;8.690;2023-05-01T01:20:16;13.23;;;5.90;;
4055;SDS011;2043;52.184;8.690;2023-05-01T01:23:00;12.90;;;6.03;;
4055;SDS011;2043;52.184;8.690;2023-05-01T01:34:43;11.53;;;6.07;;
4055;SDS011;2043;52.184;8.690;2023-05-01T01:40:04;19.77;;;8.47;;
4055;SDS011;2043;52.184;8.690;2023-05-01T01:42:36;14.57;;;8.13;;
4055;SDS011;2043;52.184;8.690;2023-05-01T01:45:22;25.73;;;7.70;;
4055;SDS011;2043;52.184;8.690;2023-05-01T01:48:10;16.00;;;6.70;;
4055;SDS011;2043;52.184;8.690;2023-05-01T01:50:41;19.90;;;8.80;;
4055;SDS011;2043;52.184;8.690;2023-05-01T01:53:12;23.67;;;8.00;;
4055;SDS011;2043;52.184;8.690;2023-05-01T01:55:43;26.07;;;8.57;;
4055;SDS011;2043;52.184;8.690;2023-05-01T01:58:11;24.67;;;9.43;;
4055;SDS011;2043;52.184;8.690;2023-05-01T02:00:40;20.67;;;9.13;;
4055;SDS011;2043;52.184;8.690;2023-05-01T02:03:10;18.40;;;8.40;;
4055;SDS011;2043;52.184;8.690;2023-05-01T02:05:38;17.70;;;8.50;;
4055;SDS011;2043;52.184;8.690;2023-05-01T02:08:07;14.53;;;7.20;;
4055;SDS011;2043;52.184;8.690;2023-05-01T02:10:36;15.53;;;6.93;;
4055;SDS011;2043;52.184;8.690;2023-05-01T02:13:05;11.97;;;5.87;;
4055;SDS011;2043;52.184;8.690;2023-05-01T02:15:32;13.40;;;6.60;;
4055;SDS011;2043;52.184;8.690;2023-05-01T02:18:01;11.00;;;6.53;;
4055;SDS011;2043;52.184;8.690;2023-05-01T02:20:30;14.23;;;7.70;;
4055;SDS011;2043;52.184;8.690;2023-05-01T02:22:58;16.83;;;7.10;;
4055;SDS011;2043;52.184;8.690;2023-05-01T02:25:25;14.37;;;7.83;;
4055;SDS011;2043;52.184;8.690;2023-05-01T02:27:56;12.60;;;6.90;;
4055;SDS011;2043;52.184;8.690;2023-05-01T02:30:26;15.33;;;7.57;;
4055;SDS011;2043;52.184;8.690;2023-05-01T02:32:53;16.40;;;7.37;;
4055;SDS011;2043;52.184;8.690;2023-05-01T02:35:21;12.67;;;6.57;;
4055;SDS011;2043;52.184;8.690;2023-05-01T02:37:48;12.73;;;6.93;;
4055;SDS011;2043;52.184;8.690;2023-05-01T02:40:15;14.40;;;7.27;;
4055;SDS011;2043;52.184;8.690;2023-05-01T02:42:42;14.13;;;7.47;;
4055;SDS011;2043;52.184;8.690;2023-05-01T02:45:16;12.00;;;6.87;;
4055;SDS011;2043;52.184;8.690;2023-05-01T02:47:45;17.47;;;7.37;;
4055;SDS011;2043;52.184;8.690;2023-05-01T02:50:16;16.63;;;6.63;;
4055;SDS011;2043;52.184;8.690;2023-05-01T02:52:44;13.20;;;6.80;;
4055;SDS011;2043;52.184;8.690;2023-05-01T02:55:12;13.70;;;7.30;;
4055;SDS011;2043;52.184;8.690;2023-05-01T02:57:39;13.60;;;6.90;;
4055;SDS011;2043;52.184;8.690;2023-05-01T03:00:07;13.20;;;6.90;;
4055;SDS011;2043;52.184;8.690;2023-05-01T03:02:39;12.23;;;7.10;;
4055;SDS011;2043;52.184;8.690;2023-05-01T03:05:06;16.87;;;7.63;;
4055;SDS011;2043;52.184;8.690;2023-05-01T03:07:33;16.80;;;7.63;;
4055;SDS011;2043;52.184;8.690;2023-05-01T03:10:01;11.80;;;7.20;;
4055;SDS011;2043;52.184;8.690;2023-05-01T03:12:29;11.70;;;7.37;;
4055;SDS011;2043;52.184;8.690;2023-05-01T03:14:56;13.50;;;7.30;;
4055;SDS011;2043;52.184;8.690;2023-05-01T03:17:23;18.20;;;7.00;;
4055;SDS011;2043;52.184;8.690;2023-05-01T03:19:50;17.03;;;7.00;;
4055;SDS011;2043;52.184;8.690;2023-05-01T03:22:16;20.30;;;7.50;;
4055;SDS011;2043;52.184;8.690;2023-05-01T03:24:43;11.67;;;7.13;;
4055;SDS011;2043;52.184;8.690;2023-05-01T03:27:12;22.77;;;7.87;;
4055;SDS011;2043;52.184;8.690;2023-05-01T03:29:39;17.20;;;7.37;;
4055;SDS011;2043;52.184;8.690;2023-05-01T03:32:06;12.87;;;6.80;;
4055;SDS011;2043;52.184;8.690;2023-05-01T03:34:34;11.77;;;6.50;;
4055;SDS011;2043;52.184;8.690;2023-05-01T03:37:00;15.63;;;7.27;;
4055;SDS011;2043;52.184;8.690;2023-05-01T03:39:28;12.60;;;6.90;;
4055;SDS011;2043;52.184;8.690;2023-05-01T03:41:55;14.60;;;7.70;;
4055;SDS011;2043;52.184;8.690;2023-05-01T03:44:22;13.33;;;6.63;;
4055;SDS011;2043;52.184;8.690;2023-05-01T03:46:49;11.10;;;6.60;;
4055;SDS011;2043;52.184;8.690;2023-05-01T03:49:16;18.13;;;8.30;;
4055;SDS011;2043;52.184;8.690;2023-05-01T03:51:56;13.80;;;7.00;;
4055;SDS011;2043;52.184;8.690;2023-05-01T03:54:22;14.50;;;7.40;;
4055;SDS011;2043;52.184;8.690;2023-05-01T03:56:49;12.50;;;6.60;;
4055;SDS011;2043;52.184;8.690;2023-05-01T03:59:16;17.63;;;7.70;;
4055;SDS011;2043;52.184;8.690;2023-05-01T04:01:43;15.83;;;7.40;;
4055;SDS011;2043;52.184;8.690;2023-05-01T04:04:10;18.97;;;7.97;;
4055;SDS011;2043;52.184;8.690;2023-05-01T04:06:37;11.50;;;6.70;;
4055;SDS011;2043;52.184;8.690;2023-05-01T04:09:04;15.07;;;7.40;;
4055;SDS011;2043;52.184;8.690;2023-05-01T04:11:30;10.93;;;7.10;;
4055;SDS011;2043;52.184;8.690;2023-05-01T04:13:57;15.20;;;7.13;;
4055;SDS011;2043;52.184;8.690;2023-05-01T04:16:24;16.73;;;7.57;;
4055;SDS011;2043;52.184;8.690;2023-05-01T04:18:51;15.67;;;6.90;;
4055;SDS011;2043;52.184;8.690;2023-05-01T04:21:18;15.83;;;7.00;;
4055;SDS011;2043;52.184;8.690;2023-05-01T04:23:45;15.10;;;7.30;;
4055;SDS011;2043;52.184;8.690;2023-05-01T04:26:12;14.77;;;7.47;;
4055;SDS011;2043;52.184;8.690;2023-05-01T04:28:38;13.20;;;6.83;;
4055;SDS011;2043;52.184;8.690;2023-05-01T04:31:05;12.60;;;7.13;;
4055;SDS011;2043;52.184;8.690;2023-05-01T04:33:32;19.20;;;7.77;;
4055;SDS011;2043;52.184;8.690;2023-05-01T04:35:59;14.40;;;6.60;;
4055;SDS011;2043;52.184;8.690;2023-05-01T04:38:26;15.87;;;7.63;;
4055;SDS011;2043;52.184;8.690;2023-05-01T04:40:54;15.47;;;7.83;;
4055;SDS011;2043;52.184;8.690;2023-05-01T04:43:21;12.87;;;6.97;;
4055;SDS011;2043;52.184;8.690;2023-05-01T04:45:48;15.67;;;7.77;;
4055;SDS011;2043;52.184;8.690;2023-05-01T04:48:15;19.77;;;7.60;;
4055;SDS011;2043;52.184;8.690;2023-05-01T04:50:42;14.70;;;7.60;;
4055;SDS011;2043;52.184;8.690;2023-05-01T04:53:09;15.13;;;6.90;;
4055;SDS011;2043;52.184;8.690;2023-05-01T04:55:36;17.83;;;8.10;;
4055;SDS011;2043;52.184;8.690;2023-05-01T04:58:03;18.10;;;8.27;;
4055;SDS011;2043;52.184;8.690;2023-05-01T05:00:30;16.10;;;7.67;;
4055;SDS011;2043;52.184;8.690;2023-05-01T05:02:57;15.00;;;6.87;;
4055;SDS011;2043;52.184;8.690;2023-05-01T05:05:24;14.83;;;7.57;;
4055;SDS011;2043;52.184;8.690;2023-05-01T05:07:51;13.80;;;7.00;;
4055;SDS011;2043;52.184;8.690;2023-05-01T05:10:18;17.47;;;7.73;;
4055;SDS011;2043;52.184;8.690;2023-05-01T05:12:45;14.67;;;8.87;;
4055;SDS011;2043;52.184;8.690;2023-05-01T05:15:11;16.60;;;7.40;;
4055;SDS011;2043;52.184;8.690;2023-05-01T05:17:38;12.87;;;7.40;;
4055;SDS011;2043;52.184;8.690;2023-05-01T05:20:05;18.70;;;8.50;;
4055;SDS011;2043;52.184;8.690;2023-05-01T05:22:36;15.70;;;7.87;;
4055;SDS011;2043;52.184;8.690;2023-05-01T05:25:03;16.70;;;8.50;;
4055;SDS011;2043;52.184;8.690;2023-05-01T05:27:31;22.60;;;8.17;;
4055;SDS011;2043;52.184;8.690;2023-05-01T05:30:06;20.33;;;8.10;;
4055;SDS011;2043;52.184;8.690;2023-05-01T05:32:33;15.13;;;8.00;;
4055;SDS011;2043;52.184;8.690;2023-05-01T05:35:00;22.20;;;7.47;;
4055;SDS011;2043;52.184;8.690;2023-05-01T05:37:27;13.77;;;7.83;;
4055;SDS011;2043;52.184;8.690;2023-05-01T05:39:54;17.60;;;6.97;;
4055;SDS011;2043;52.184;8.690;2023-05-01T05:42:21;13.97;;;7.47;;
4055;SDS011;2043;52.184;8.690;2023-05-01T05:44:48;16.87;;;7.00;;
4055;SDS011;2043;52.184;8.690;2023-05-01T05:47:15;9.73;;;6.03;;
4055;SDS011;2043;52.184;8.690;2023-05-01T05:49:42;12.63;;;6.60;;
4055;SDS011;2043;52.184;8.690;2023-05-01T05:52:08;10.53;;;6.40;;
4055;SDS011;2043;52.184;8.690;2023-05-01T05:54:35;16.43;;;6.57;;
4055;SDS011;2043;52.184;8.690;2023-05-01T05:57:02;13.60;;;6.10;;
4055;SDS011;2043;52.184;8.690;2023-05-01T05:59:29;13.60;;;6.40;;
4055;SDS011;2043;52.184;8.690;2023-05-01T06:01:56;11.00;;;6.47;;
4055;SDS011;2043;52.184;8.690;2023-05-01T06:04:23;15.30;;;6.70;;
4055;SDS011;2043;52.184;8.690;2023-05-01T06:06:50;13.40;;;6.37;;
4055;SDS011;2043;52.184;8.690;2023-05-01T06:09:17;12.40;;;6.30;;
4055;SDS011;2043;52.184;8.690;2023-05-01T06:11:45;13.43;;;6.27;;
4055;SDS011;2043;52.184;8.690;2023-05-01T06:14:13;15.60;;;6.50;;
4055;SDS011;2043;52.184;8.690;2023-05-01T06:16:41;15.77;;;6.20;;
4055;SDS011;2043;52.184;8.690;2023-05-01T06:19:08;11.50;;;6.00;;
4055;SDS011;2043;52.184;8.690;2023-05-01T06:21:37;13.30;;;6.63;;
4055;SDS011;2043;52.184;8.690;2023-05-01T06:24:04;11.63;;;5.50;;
4055;SDS011;2043;52.184;8.690;2023-05-01T06:26:31;10.20;;;6.10;;
4055;SDS011;2043;52.184;8.690;2023-05-01T06:28:58;11.20;;;6.40;;
4055;SDS011;2043;52.184;8.690;2023-05-01T06:31:25;11.57;;;5.73;;
4055;SDS011;2043;52.184;8.690;2023-05-01T06:33:52;11.17;;;6.03;;
4055;SDS011;2043;52.184;8.690;2023-05-01T06:36:19;11.97;;;6.37;;
4055;SDS011;2043;52.184;8.690;2023-05-01T06:38:46;14.00;;;6.20;;
4055;SDS011;2043;52.184;8.690;2023-05-01T06:41:14;15.30;;;6.27;;
4055;SDS011;2043;52.184;8.690;2023-05-01T06:43:42;8.90;;;5.40;;
4055;SDS011;2043;52.184;8.690;2023-05-01T06:46:08;13.07;;;6.20;;
4055;SDS011;2043;52.184;8.690;2023-05-01T06:48:35;12.27;;;5.97;;
4055;SDS011;2043;52.184;8.690;2023-05-01T06:51:02;15.10;;;5.97;;
4055;SDS011;2043;52.184;8.690;2023-05-01T06:53:29;20.93;;;6.00;;
4055;SDS011;2043;52.184;8.690;2023-05-01T06:55:56;15.13;;;6.40;;
4055;SDS011;2043;52.184;8.690;2023-05-01T06:58:22;12.23;;;5.67;;
4055;SDS011;2043;52.184;8.690;2023-05-01T07:00:50;13.93;;;6.00;;
4055;SDS011;2043;52.184;8.690;2023-05-01T07:03:18;21.70;;;5.70;;
4055;SDS011;2043;52.184;8.690;2023-05-01T07:05:45;8.83;;;5.00;;
4055;SDS011;2043;52.184;8.690;2023-05-01T07:08:11;11.03;;;6.00;;
4055;SDS011;2043;52.184;8.690;2023-05-01T07:10:39;12.63;;;5.67;;
4055;SDS011;2043;52.184;8.690;2023-05-01T07:13:07;12.40;;;6.07;;
4055;SDS011;2043;52.184;8.690;2023-05-01T07:15:34;16.27;;;5.83;;
4055;SDS011;2043;52.184;8.690;2023-05-01T07:18:01;10.43;;;5.67;;
4055;SDS011;2043;52.184;8.690;2023-05-01T07:20:31;14.23;;;5.67;;
4055;SDS011;2043;52.184;8.690;2023-05-01T07:22:58;12.10;;;5.63;;
4055;SDS011;2043;52.184;8.690;2023-05-01T07:25:25;14.23;;;5.70;;
4055;SDS011;2043;52.184;8.690;2023-05-01T07:27:52;10.50;;;5.10;;
4055;SDS011;2043;52.184;8.690;2023-05-01T07:30:20;12.63;;;5.57;;
4055;SDS011;2043;52.184;8.690;2023-05-01T07:32:47;12.43;;;5.40;;
4055;SDS011;2043;52.184;8.690;2023-05-01T07:35:14;12.23;;;5.83;;
4055;SDS011;2043;52.184;8.690;2023-05-01T07:37:41;14.93;;;5.67;;
4055;SDS011;2043;52.184;8.690;2023-05-01T07:40:08;16.60;;;6.00;;
4055;SDS011;2043;52.184;8.690;2023-05-01T07:42:35;11.27;;;5.67;;
4055;SDS011;2043;52.184;8.690;2023-05-01T07:45:02;14.77;;;5.70;;
4055;SDS011;2043;52.184;8.690;2023-05-01T07:47:29;11.73;;;5.87;;
4055;SDS011;2043;52.184;8.690;2023-05-01T07:49:56;10.70;;;5.90;;
4055;SDS011;2043;52.184;8.690;2023-05-01T07:52:23;12.13;;;5.30;;
4055;SDS011;2043;52.184;8.690;2023-05-01T07:54:50;14.37;;;6.37;;
4055;SDS011;2043;52.184;8.690;2023-05-01T07:57:17;12.47;;;5.80;;
4055;SDS011;2043;52.184;8.690;2023-05-01T07:59:44;10.00;;;6.10;;
4055;SDS011;2043;52.184;8.690;2023-05-01T08:02:11;16.63;;;6.03;;
4055;SDS011;2043;52.184;8.690;2023-05-01T08:04:39;12.43;;;5.20;;
4055;SDS011;2043;52.184;8.690;2023-05-01T08:07:07;13.97;;;5.97;;
4055;SDS011;2043;52.184;8.690;2023-05-01T08:09:34;9.73;;;5.20;;
4055;SDS011;2043;52.184;8.690;2023-05-01T08:12:00;17.10;;;5.70;;
4055;SDS011;2043;52.184;8.690;2023-05-01T08:14:29;10.77;;;5.70;;
4055;SDS011;2043;52.184;8.690;2023-05-01T08:16:56;14.93;;;5.70;;
4055;SDS011;2043;52.184;8.690;2023-05-01T08:19:23;20.20;;;5.30;;
4055;SDS011;2043;52.184;8.690;2023-05-01T08:21:50;11.53;;;5.20;;
4055;SDS011;2043;52.184;8.690;2023-05-01T08:24:17;13.63;;;5.77;;
4055;SDS011;2043;52.184;8.690;2023-05-01T08:26:44;9.87;;;5.50;;
4055;SDS011;2043;52.184;8.690;2023-05-01T08:29:11;10.80;;;6.10;;
4055;SDS011;2043;52.184;8.690;2023-05-01T08:31:39;13.00;;;5.70;;
4055;SDS011;2043;52.184;8.690;2023-05-01T08:34:08;14.27;;;5.60;;
4055;SDS011;2043;52.184;8.690;2023-05-01T08:36:35;11.63;;;5.40;;
4055;SDS011;2043;52.184;8.690;2023-05-01T08:39:03;12.20;;;5.47;;
4055;SDS011;2043;52.184;8.690;2023-05-01T08:41:30;12.73;;;5.80;;
4055;SDS011;2043;52.184;8.690;2023-05-01T08:43:59;10.90;;;5.10;;
4055;SDS011;2043;52.184;8.690;2023-05-01T08:49:03;8.87;;;4.70;;
4055;SDS011;2043;52.184;8.690;2023-05-01T08:51:34;8.37;;;5.07;;
4055;SDS011;2043;52.184;8.690;2023-05-01T08:54:03;10.67;;;5.07;;
4055;SDS011;2043;52.184;8.690;2023-05-01T08:56:34;8.73;;;4.60;;
4055;SDS011;2043;52.184;8.690;2023-05-01T08:59:03;10.07;;;4.83;;
4055;SDS011;2043;52.184;8.690;2023-05-01T09:01:32;9.73;;;4.80;;
4055;SDS011;2043;52.184;8.690;2023-05-01T09:04:01;10.87;;;4.70;;
4055;SDS011;2043;52.184;8.690;2023-05-01T09:06:29;9.73;;;4.70;;
4055;SDS011;2043;52.184;8.690;2023-05-01T09:08:57;7.97;;;4.77;;
4055;SDS011;2043;52.184;8.690;2023-05-01T09:11:25;14.40;;;4.73;;
4055;SDS011;2043;52.184;8.690;2023-05-01T09:13:52;11.27;;;4.77;;
4055;SDS011;2043;52.184;8.690;2023-05-01T09:16:19;7.40;;;4.43;;
4055;SDS011;2043;52.184;8.690;2023-05-01T09:18:47;7.03;;;4.27;;
4055;SDS011;2043;52.184;8.690;2023-05-01T09:21:14;9.60;;;4.60;;
4055;SDS011;2043;52.184;8.690;2023-05-01T09:23:41;10.10;;;4.63;;
4055;SDS011;2043;52.184;8.690;2023-05-01T09:26:07;11.33;;;4.90;;
4055;SDS011;2043;52.184;8.690;2023-05-01T09:28:38;10.43;;;4.40;;
4055;SDS011;2043;52.184;8.690;2023-05-01T09:33:59;7.73;;;4.27;;
4055;SDS011;2043;52.184;8.690;2023-05-01T09:36:30;7.87;;;3.93;;
4055;SDS011;2043;52.184;8.690;2023-05-01T09:38:59;6.60;;;3.87;;
4055;SDS011;2043;52.184;8.690;2023-05-01T09:41:27;7.97;;;3.90;;
4055;SDS011;2043;52.184;8.690;2023-05-01T09:43:57;7.60;;;4.00;;
4055;SDS011;2043;52.184;8.690;2023-05-01T09:46:25;6.80;;;3.83;;
4055;SDS011;2043;52.184;8.690;2023-05-01T09:53:58;8.60;;;3.90;;
4055;SDS011;2043;52.184;8.690;2023-05-01T09:56:27;12.63;;;4.20;;
4055;SDS011;2043;52.184;8.690;2023-05-01T09:58:56;8.67;;;3.50;;
4055;SDS011;2043;52.184;8.690;2023-05-01T10:04:05;5.70;;;2.60;;
4055;SDS011;2043;52.184;8.690;2023-05-01T10:06:32;5.07;;;2.80;;
4055;SDS011;2043;52.184;8.690;2023-05-01T10:08:59;7.10;;;3.23;;
4055;SDS011;2043;52.184;8.690;2023-05-01T10:11:26;8.20;;;4.17;;
4055;SDS011;2043;52.184;8.690;2023-05-01T10:14:06;7.07;;;3.70;;
4055;SDS011;2043;52.184;8.690;2023-05-01T10:16:35;17.53;;;4.20;;
4055;SDS011;2043;52.184;8.690;2023-05-01T10:19:03;12.73;;;4.00;;
4055;SDS011;2043;52.184;8.690;2023-05-01T10:21:31;6.73;;;3.63;;
4055;SDS011;2043;52.184;8.690;2023-05-01T10:23:59;8.03;;;3.43;;
4055;SDS011;2043;52.184;8.690;2023-05-01T10:26:34;8.43;;;3.80;;
4055;SDS011;2043;52.184;8.690;2023-05-01T10:29:02;11.23;;;3.60;;
4055;SDS011;2043;52.184;8.690;2023-05-01T10:31:29;11.60;;;3.30;;
4055;SDS011;2043;52.184;8.690;2023-05-01T10:33:58;7.13;;;3.33;;
4055;SDS011;2043;52.184;8.690;2023-05-01T10:36:33;6.33;;;3.60;;
4055;SDS011;2043;52.184;8.690;2023-05-01T10:39:05;6.40;;;3.37;;
4055;SDS011;2043;52.184;8.690;2023-05-01T10:44:24;7.17;;;3.33;;
4055;SDS011;2043;52.184;8.690;2023-05-01T10:46:52;8.50;;;3.57;;
4055;SDS011;2043;52.184;8.690;2023-05-01T10:49:20;6.63;;;3.67;;
4055;SDS011;2043;52.184;8.690;2023-05-01T10:54:24;5.60;;;2.90;;
4055;SDS011;2043;52.184;8.690;2023-05-01T10:56:53;5.10;;;2.83;;
4055;SDS011;2043;52.184;8.690;2023-05-01T10:59:21;6.07;;;2.90;;
4055;SDS011;2043;52.184;8.690;2023-05-01T11:01:48;7.13;;;3.30;;
4055;SDS011;2043;52.184;8.690;2023-05-01T11:09:40;5.03;;;2.10;;
4055;SDS011;2043;52.184;8.690;2023-05-01T11:18:13;4.83;;;2.43;;
4055;SDS011;2043;52.184;8.690;2023-05-01T11:20:45;4.70;;;2.53;;
4055;SDS011;2043;52.184;8.690;2023-05-01T11:23:15;6.77;;;2.80;;
4055;SDS011;2043;52.184;8.690;2023-05-01T11:25:43;4.10;;;2.30;;
4055;SDS011;2043;52.184;8.690;2023-05-01T11:28:13;5.70;;;2.00;;
4055;SDS011;2043;52.184;8.690;2023-05-01T11:30:45;4.30;;;1.90;;
4055;SDS011;2043;52.184;8.690;2023-05-01T11:33:12;3.63;;;1.50;;
4055;SDS011;2043;52.184;8.690;2023-05-01T11:35:46;4.10;;;1.83;;
4055;SDS011;2043;52.184;8.690;2023-05-01T11:38:22;3.77;;;2.03;;
4055;SDS011;2043;52.184;8.690;2023-05-01T11:40:52;5.53;;;2.00;;
4055;SDS011;2043;52.184;8.690;2023-05-01T11:43:21;3.70;;;1.70;;
4055;SDS011;2043;52.184;8.690;2023-05-01T11:45:50;5.43;;;1.90;;
4055;SDS011;2043;52.184;8.690;2023-05-01T11:48:19;3.23;;;1.70;;
4055;SDS011;2043;52.184;8.690;2023-05-01T11:50:47;5.57;;;2.17;;
4055;SDS011;2043;52.184;8.690;2023-05-01T11:53:14;4.10;;;1.90;;
4055;SDS011;2043;52.184;8.690;2023-05-01T11:55:42;2.83;;;1.60;;
4055;SDS011;2043;52.184;8.690;2023-05-01T11:58:09;3.87;;;1.80;;
4055;SDS011;2043;52.184;8.690;2023-05-01T12:00:40;3.33;;;1.80;;
4055;SDS011;2043;52.184;8.690;2023-05-01T12:05:43;6.97;;;1.73;;
4055;SDS011;2043;52.184;8.690;2023-05-01T12:08:14;4.53;;;2.40;;
4055;SDS011;2043;52.184;8.690;2023-05-01T12:10:45;3.47;;;1.90;;
4055;SDS011;2043;52.184;8.690;2023-05-01T12:13:19;3.80;;;1.90;;
4055;SDS011;2043;52.184;8.690;2023-05-01T12:15:46;4.43;;;1.70;;
4055;SDS011;2043;52.184;8.690;2023-05-01T12:18:15;5.87;;;2.37;;
4055;SDS011;2043;52.184;8.690;2023-05-01T12:20:43;3.83;;;1.97;;
4055;SDS011;2043;52.184;8.690;2023-05-01T12:23:32;3.77;;;2.07;;
4055;SDS011;2043;52.184;8.690;2023-05-01T12:26:01;4.40;;;2.00;;
4055;SDS011;2043;52.184;8.690;2023-05-01T12:28:29;6.10;;;2.17;;
4055;SDS011;2043;52.184;8.690;2023-05-01T12:31:00;3.57;;;2.07;;
4055;SDS011;2043;52.184;8.690;2023-05-01T12:33:30;4.03;;;2.30;;
4055;SDS011;2043;52.184;8.690;2023-05-01T12:36:07;5.60;;;2.07;;
4055;SDS011;2043;52.184;8.690;2023-05-01T12:38:36;5.20;;;2.17;;
4055;SDS011;2043;52.184;8.690;2023-05-01T12:41:03;5.07;;;2.10;;
4055;SDS011;2043;52.184;8.690;2023-05-01T12:43:34;8.83;;;2.40;;
4055;SDS011;2043;52.184;8.690;2023-05-01T12:46:03;7.13;;;2.57;;
4055;SDS011;2043;52.184;8.690;2023-05-01T12:48:31;5.30;;;2.33;;
4055;SDS011;2043;52.184;8.690;2023-05-01T12:50:59;4.30;;;2.27;;
4055;SDS011;2043;52.184;8.690;2023-05-01T12:53:27;4.63;;;2.00;;
4055;SDS011;2043;52.184;8.690;2023-05-01T12:55:55;3.27;;;2.03;;
4055;SDS011;2043;52.184;8.690;2023-05-01T12:58:23;4.47;;;2.10;;
4055;SDS011;2043;52.184;8.690;2023-05-01T13:01:00;6.53;;;2.40;;
4055;SDS011;2043;52.184;8.690;2023-05-01T13:03:28;5.60;;;2.30;;
4055;SDS011;2043;52.184;8.690;2023-05-01T13:05:56;5.67;;;2.40;;
4055;SDS011;2043;52.184;8.690;2023-05-01T13:08:45;5.57;;;2.20;;
4055;SDS011;2043;52.184;8.690;2023-05-01T13:11:13;4.70;;;2.33;;
4055;SDS011;2043;52.184;8.690;2023-05-01T13:13:45;6.33;;;2.60;;
4055;SDS011;2043;52.184;8.690;2023-05-01T13:16:15;6.37;;;2.30;;
4055;SDS011;2043;52.184;8.690;2023-05-01T13:18:49;5.07;;;2.30;;
4055;SDS011;2043;52.184;8.690;2023-05-01T13:21:20;4.37;;;2.30;;
4055;SDS011;2043;52.184;8.690;2023-05-01T13:28:54;4.10;;;2.20;;
4055;SDS011;2043;52.184;8.690;2023-05-01T13:31:22;4.40;;;1.90;;
4055;SDS011;2043;52.184;8.690;2023-05-01T13:33:49;5.47;;;2.23;;
4055;SDS011;2043;52.184;8.690;2023-05-01T13:36:18;3.97;;;1.93;;
4055;SDS011;2043;52.184;8.690;2023-05-01T13:38:53;4.27;;;1.90;;
4055;SDS011;2043;52.184;8.690;2023-05-01T13:41:22;4.13;;;2.43;;
4055;SDS011;2043;52.184;8.690;2023-05-01T13:43:51;5.17;;;2.23;;
4055;SDS011;2043;52.184;8.690;2023-05-01T13:46:20;10.73;;;2.00;;
4055;SDS011;2043;52.184;8.690;2023-05-01T13:48:48;9.00;;;1.90;;
4055;SDS011;2043;52.184;8.690;2023-05-01T13:51:22;3.60;;;1.67;;
4055;SDS011;2043;52.184;8.690;2023-05-01T13:53:50;5.07;;;2.40;;
4055;SDS011;2043;52.184;8.690;2023-05-01T13:56:19;4.90;;;2.10;;
4055;SDS011;2043;52.184;8.690;2023-05-01T13:58:47;4.67;;;2.10;;
4055;SDS011;2043;52.184;8.690;2023-05-01T14:01:18;4.23;;;2.00;;
4055;SDS011;2043;52.184;8.690;2023-05-01T14:03:47;6.70;;;2.10;;
4055;SDS011;2043;52.184;8.690;2023-05-01T14:06:15;3.43;;;1.90;;
4055;SDS011;2043;52.184;8.690;2023-05-01T14:08:47;3.90;;;2.10;;
4055;SDS011;2043;52.184;8.690;2023-05-01T14:11:14;3.70;;;1.80;;
4055;SDS011;2043;52.184;8.690;2023-05-01T14:13:42;5.20;;;2.00;;
4055;SDS011;2043;52.184;8.690;2023-05-01T14:16:11;4.00;;;2.20;;
4055;SDS011;2043;52.184;8.690;2023-05-01T14:18:51;3.70;;;2.10;;
4055;SDS011;2043;52.184;8.690;2023-05-01T14:21:20;8.13;;;2.10;;
4055;SDS011;2043;52.184;8.690;2023-05-01T14:23:52;5.03;;;2.03;;
4055;SDS011;2043;52.184;8.690;2023-05-01T14:26:19;5.07;;;2.30;;
4055;SDS011;2043;52.184;8.690;2023-05-01T14:28:49;3.73;;;2.10;;
4055;SDS011;2043;52.184;8.690;2023-05-01T14:31:25;4.53;;;2.20;;
4055;SDS011;2043;52.184;8.690;2023-05-01T14:33:58;6.13;;;2.10;;
4055;SDS011;2043;52.184;8.690;2023-05-01T14:36:26;4.50;;;2.20;;
4055;SDS011;2043;52.184;8.690;2023-05-01T14:38:56;5.50;;;1.60;;
4055;SDS011;2043;52.184;8.690;2023-05-01T14:41:24;4.07;;;1.77;;
4055;SDS011;2043;52.184;8.690;2023-05-01T14:43:51;3.40;;;2.00;;
4055;SDS011;2043;52.184;8.690;2023-05-01T14:48:59;4.23;;;1.80;;
4055;SDS011;2043;52.184;8.690;2023-05-01T14:51:27;6.90;;;2.30;;
4055;SDS011;2043;52.184;8.690;2023-05-01T14:53:57;3.60;;;2.00;;
4055;SDS011;2043;52.184;8.690;2023-05-01T14:56:24;3.80;;;1.90;;
4055;SDS011;2043;52.184;8.690;2023-05-01T14:58:51;4.10;;;2.03;;
4055;SDS011;2043;52.184;8.690;2023-05-01T15:01:18;4.50;;;1.90;;
4055;SDS011;2043;52.184;8.690;2023-05-01T15:03:45;8.60;;;2.00;;
4055;SDS011;2043;52.184;8.690;2023-05-01T15:06:12;6.33;;;1.63;;
4055;SDS011;2043;52.184;8.690;2023-05-01T15:08:39;3.00;;;1.70;;
4055;SDS011;2043;52.184;8.690;2023-05-01T15:11:06;3.33;;;1.90;;
4055;SDS011;2043;52.184;8.690;2023-05-01T15:13:34;3.70;;;1.57;;
4055;SDS011;2043;52.184;8.690;2023-05-01T15:16:01;4.70;;;1.97;;
4055;SDS011;2043;52.184;8.690;2023-05-01T15:18:28;4.70;;;2.67;;
4055;SDS011;2043;52.184;8.690;2023-05-01T15:20:55;6.27;;;3.97;;
4055;SDS011;2043;52.184;8.690;2023-05-01T15:23:22;3.50;;;2.00;;
4055;SDS011;2043;52.184;8.690;2023-05-01T15:25:52;3.60;;;1.93;;
4055;SDS011;2043;52.184;8.690;2023-05-01T15:28:19;4.40;;;2.33;;
4055;SDS011;2043;52.184;8.690;2023-05-01T15:30:46;6.47;;;4.20;;
4055;SDS011;2043;52.184;8.690;2023-05-01T15:33:13;3.50;;;2.00;;
4055;SDS011;2043;52.184;8.690;2023-05-01T15:35:44;5.93;;;2.20;;
4055;SDS011;2043;52.184;8.690;2023-05-01T15:38:11;5.13;;;2.20;;
4055;SDS011;2043;52.184;8.690;2023-05-01T15:40:38;3.87;;;1.90;;
4055;SDS011;2043;52.184;8.690;2023-05-01T15:43:05;4.17;;;2.20;;
4055;SDS011;2043;52.184;8.690;2023-05-01T15:45:32;3.50;;;2.00;;
4055;SDS011;2043;52.184;8.690;2023-05-01T15:47:59;4.80;;;1.90;;
4055;SDS011;2043;52.184;8.690;2023-05-01T15:50:26;3.73;;;2.17;;
4055;SDS011;2043;52.184;8.690;2023-05-01T15:52:54;4.50;;;1.90;;
4055;SDS011;2043;52.184;8.690;2023-05-01T15:55:22;3.90;;;2.00;;
4055;SDS011;2043;52.184;8.690;2023-05-01T15:57:48;15.77;;;2.47;;
4055;SDS011;2043;52.184;8.690;2023-05-01T16:00:15;4.80;;;2.30;;
4055;SDS011;2043;52.184;8.690;2023-05-01T16:02:43;5.53;;;2.30;;
4055;SDS011;2043;52.184;8.690;2023-05-01T16:05:11;4.40;;;1.70;;
4055;SDS011;2043;52.184;8.690;2023-05-01T16:07:41;6.40;;;2.30;;
4055;SDS011;2043;52.184;8.690;2023-05-01T16:10:09;5.43;;;3.20;;
4055;SDS011;2043;52.184;8.690;2023-05-01T16:12:37;4.10;;;2.43;;
4055;SDS011;2043;52.184;8.690;2023-05-01T16:15:04;4.00;;;2.20;;
4055;SDS011;2043;52.184;8.690;2023-05-01T16:17:31;4.10;;;2.00;;
4055;SDS011;2043;52.184;8.690;2023-05-01T16:20:00;4.10;;;2.03;;